Time;durP1;ratioP1;P1;durP2;ratioP2;P2;SDS_P1;SDS_P2;PMS_P1;PMS_P2;Temp;Humidity;BMP_temperature;BMP_pressure;BME280_temperature;BME280_humidity;BME280_pressure;Samples;Min_cycle;Max_cycle;Signal;HPM_P1;HPM_P2
2021/09/24 05:00:41;;;;;;;10.95;8.73;;;;;;;7.26;85.55;95026.13;6191766;22;20016;31
2021/09/24 05:03:06;;;;;;;10.40;9.30;;;;;;;7.48;83.96;95012.78;5005050;28;20084;-84
2021/09/24 05:05:32;;;;;;;10.57;8.75;;;;;;;7.74;84.51;95005.03;4990940;28;20030;-83
2021/09/24 05:07:57;;;;;;;11.52;8.82;;;;;;;7.65;82.30;94991.31;4989416;28;20038;-80
2021/09/24 05:10:23;;;;;;;247.52;19.83;;;;;;;7.69;83.10;95008.09;5007143;28;20471;-83
2021/09/24 05:12:48;;;;;;;254.00;21.50;;;;;;;6.72;88.03;95006.50;5005445;28;20033;-86
2021/09/24 05:15:14;;;;;;;12.32;11.18;;;;;;;6.48;88.49;94976.19;4992431;28;20033;-84
2021/09/24 05:17:39;;;;;;;11.05;9.90;;;;;;;6.77;88.64;95020.56;4988952;28;20525;-84
2021/09/24 05:20:06;;;;;;;10.50;9.43;;;;;;;7.06;88.93;95006.66;5008573;28;20033;-78
2021/09/24 05:22:31;;;;;;;11.13;10.02;;;;;;;6.78;88.65;95006.72;5004955;28;20061;-84
2021/09/24 05:24:57;;;;;;;12.88;11.00;;;;;;;6.64;90.34;95009.81;4988138;28;20518;-85
2021/09/24 05:27:22;;;;;;;12.98;10.77;;;;;;;6.98;88.68;94976.50;4987784;28;20403;-83
2021/09/24 05:29:48;;;;;;;12.13;10.20;;;;;;;7.41;86.03;95004.03;4988541;28;20041;-86
2021/09/24 05:32:14;;;;;;;10.52;9.52;;;;;;;7.59;84.68;94979.03;4995655;28;20129;-86
2021/09/24 05:34:41;;;;;;;10.95;9.85;;;;;;;7.70;85.01;94978.78;4989984;28;20237;-85
2021/09/24 05:37:07;;;;;;;56.42;12.57;;;;;;;7.76;85.94;95005.72;5022864;28;20407;-85
2021/09/24 05:39:32;;;;;;;11.85;10.80;;;;;;;7.91;86.64;94991.28;5006577;28;20040;-86
2021/09/24 05:41:58;;;;;;;11.13;9.98;;;;;;;8.62;82.48;94999.50;5007881;28;20030;-82
2021/09/24 05:44:24;;;;;;;9.70;8.77;;;;;;;9.71;79.82;94994.88;4991325;28;20483;-84
2021/09/24 05:46:49;;;;;;;7.95;7.25;;;;;;;10.19;75.47;94973.25;5007219;28;20033;-83
2021/09/24 05:49:15;;;;;;;8.77;7.95;;;;;;;10.29;75.38;94995.41;4991178;28;20034;-81
2021/09/24 05:51:40;;;;;;;7.28;6.68;;;;;;;10.98;73.50;94991.94;5006402;28;20537;-83
2021/09/24 05:54:06;;;;;;;7.43;6.82;;;;;;;11.16;69.12;94988.28;4991243;28;20088;-83
2021/09/24 05:56:31;;;;;;;5.32;4.93;;;;;;;12.16;64.85;94954.13;4989982;28;20555;-83
2021/09/24 05:58:57;;;;;;;7.15;6.00;;;;;;;15.80;54.84;94982.94;4991132;28;20026;-83
2021/09/24 06:01:22;;;;;;;6.10;5.70;;;;;;;17.66;48.56;94967.09;4989119;28;20487;-83
2021/09/24 06:03:47;;;;;;;4.85;4.45;;;;;;;19.05;43.58;94964.66;4991050;28;20034;-83
2021/09/24 06:06:13;;;;;;;14.43;4.63;;;;;;;15.48;50.90;94954.19;5007087;28;20029;-85
2021/09/24 06:08:38;;;;;;;6.07;4.85;;;;;;;16.06;50.14;94955.97;4990336;28;20416;-82
2021/09/24 06:11:04;;;;;;;6.95;4.85;;;;;;;19.49;42.66;94973.16;4990971;28;20088;-83
2021/09/24 06:13:29;;;;;;;5.60;4.57;;;;;;;17.64;46.11;94981.44;4989684;28;20025;-83
2021/09/24 06:15:55;;;;;;;166.45;11.88;;;;;;;19.39;41.45;94916.66;5007904;28;20030;-84
2021/09/24 06:18:20;;;;;;;8.48;4.50;;;;;;;21.07;38.98;94979.84;4989249;28;20030;-83
2021/09/24 06:20:46;;;;;;;5.10;4.65;;;;;;;21.31;38.15;94918.16;4991089;28;20061;-82
2021/09/24 06:23:12;;;;;;;4.75;4.30;;;;;;;24.31;33.93;94961.91;4990242;28;20104;-82
2021/09/24 06:25:38;;;;;;;22.83;5.60;;;;;;;26.17;31.37;94967.00;4995054;28;20033;-82
2021/09/24 06:28:03;;;;;;;5.57;5.07;;;;;;;26.19;30.51;94946.28;5011284;28;20029;-84
2021/09/24 06:30:29;;;;;;;6.13;5.70;;;;;;;27.13;28.94;94932.16;5026402;28;20041;-84
2021/09/24 06:32:55;;;;;;;6.20;5.70;;;;;;;27.86;27.99;94963.41;5011327;28;20026;-83
2021/09/24 06:35:21;;;;;;;395.00;17.35;;;;;;;25.27;30.33;94935.81;4993167;28;20034;-83
2021/09/24 06:37:46;;;;;;;4.53;4.13;;;;;;;24.84;31.36;94920.34;4995213;28;20018;-82
2021/09/24 06:40:12;;;;;;;4.90;4.60;;;;;;;26.25;29.80;94956.91;4993127;28;20026;-81
2021/09/24 06:42:37;;;;;;;81.10;6.70;;;;;;;24.87;31.54;94980.78;4994850;28;20026;-83
2021/09/24 06:45:08;;;;;;;31.80;5.15;;;;;;;25.09;29.52;94909.81;4994181;28;20471;-83
2021/09/24 06:47:34;;;;;;;47.67;5.75;;;;;;;27.91;27.37;94934.06;5009803;28;20407;-87
2021/09/24 06:49:59;;;;;;;8.27;3.88;;;;;;;29.09;26.16;94968.09;4995302;28;20028;-90
2021/09/24 06:52:25;;;;;;;4.35;3.63;;;;;;;29.14;26.11;94968.81;4992973;28;20033;-84
2021/09/24 06:54:51;;;;;;;178.45;10.95;;;;;;;26.89;27.44;94933.09;4994775;28;20117;-82
2021/09/24 06:57:16;;;;;;;4.30;4.00;;;;;;;27.70;27.13;94939.56;4993484;28;20030;-87
2021/09/24 06:59:42;;;;;;;29.00;4.40;;;;;;;28.14;26.02;94960.00;4994611;28;20034;-87
2021/09/24 07:02:07;;;;;;;3.70;3.50;;;;;;;28.33;26.67;94960.09;5026022;28;20065;-84
2021/09/24 07:04:33;;;;;;;4.03;3.80;;;;;;;28.75;26.57;94955.69;4994303;28;20054;-84
2021/09/24 07:06:58;;;;;;;4.18;3.88;;;;;;;28.36;25.78;94947.00;4994387;28;20060;-84
2021/09/24 07:09:24;;;;;;;56.45;5.07;;;;;;;28.47;25.85;94951.16;5009405;28;20483;-92
2021/09/24 07:11:51;;;;;;;5.32;4.90;;;;;;;26.64;28.00;94944.59;4994364;28;20029;-87
2021/09/24 07:14:18;;;;;;;4.47;4.07;;;;;;;26.32;28.25;94931.66;4993464;28;20032;-82
2021/09/24 07:16:44;;;;;;;4.53;4.22;;;;;;;21.41;36.69;94954.41;5027056;28;20414;-90
2021/09/24 07:19:09;;;;;;;4.80;4.50;;;;;;;20.33;38.85;94914.91;5010936;28;20038;-86
2021/09/24 07:21:35;;;;;;;59.50;5.95;;;;;;;19.05;41.16;94883.25;5010524;28;20034;-82
2021/09/24 07:24:00;;;;;;;5.28;4.10;;;;;;;18.64;42.23;94889.28;5009624;28;20474;-85
2021/09/24 07:26:27;;;;;;;5.07;4.70;;;;;;;18.94;42.65;94944.41;5009282;28;20720;-83
2021/09/24 07:28:54;;;;;;;4.50;4.20;;;;;;;19.36;43.05;94953.13;4994286;28;20030;-85
2021/09/24 07:31:20;;;;;;;23.67;5.38;;;;;;;19.01;42.18;94954.84;5010221;28;20487;-84
2021/09/24 07:33:46;;;;;;;4.35;3.95;;;;;;;19.26;42.58;94945.78;5010082;28;20037;-87
2021/09/24 07:36:11;;;;;;;4.47;4.18;;;;;;;19.79;40.08;94939.72;5008169;28;20026;-85
2021/09/24 07:38:37;;;;;;;9.30;5.47;;;;;;;18.23;44.58;94959.94;5010145;28;20026;-82
2021/09/24 07:41:02;;;;;;;5.10;4.70;;;;;;;17.75;46.08;94902.97;4992601;28;20212;-83
2021/09/24 07:43:28;;;;;;;4.95;4.57;;;;;;;18.20;44.97;94950.72;4993138;28;20200;-85
2021/09/24 07:45:56;;;;;;;5.63;5.20;;;;;;;18.52;44.96;94968.97;4993636;28;20510;-89
2021/09/24 07:48:21;;;;;;;5.40;5.00;;;;;;;18.52;45.19;94967.13;4992787;28;20483;-82
2021/09/24 07:50:46;;;;;;;5.70;5.30;;;;;;;17.94;46.70;94985.03;5009497;28;20032;-84
2021/09/24 07:53:12;;;;;;;5.88;5.30;;;;;;;18.54;44.34;94990.50;4992160;28;20471;-86
2021/09/24 07:55:37;;;;;;;6.18;5.78;;;;;;;17.85;46.63;94992.34;5010127;28;20033;-83
2021/09/24 07:58:03;;;;;;;8.10;5.18;;;;;;;18.59;45.22;94995.94;5008392;28;20415;-92
2021/09/24 08:00:30;;;;;;;5.85;5.38;;;;;;;18.21;45.34;94965.41;5009917;28;20212;-84
2021/09/24 08:02:56;;;;;;;5.80;5.20;;;;;;;18.99;44.55;94989.16;4993455;28;20096;-86
2021/09/24 08:05:21;;;;;;;6.68;6.07;;;;;;;18.74;44.90;94968.28;4992889;28;20442;-82
2021/09/24 08:07:47;;;;;;;6.05;5.65;;;;;;;18.96;43.62;94960.75;4993330;28;20037;-82
2021/09/24 08:10:12;;;;;;;5.75;5.32;;;;;;;18.90;44.32;94977.38;5008273;28;20041;-87
2021/09/24 08:12:38;;;;;;;47.90;6.90;;;;;;;18.02;47.32;94960.34;4993511;28;20095;-84
2021/09/24 08:15:07;;;;;;;5.93;5.43;;;;;;;18.77;45.08;94959.16;5024597;28;20049;-83
2021/09/24 08:17:33;;;;;;;5.15;4.75;;;;;;;18.63;46.09;94937.53;5009241;28;20040;-82
2021/09/24 08:19:58;;;;;;;5.30;4.80;;;;;;;18.73;45.23;94950.94;5008115;28;20038;-84
2021/09/24 08:22:24;;;;;;;6.05;4.97;;;;;;;18.74;45.33;94970.09;5008949;28;20026;-86
2021/09/24 08:24:50;;;;;;;63.20;6.68;;;;;;;18.23;44.46;94897.81;5009056;28;20030;-86
2021/09/24 08:27:15;;;;;;;58.35;6.65;;;;;;;18.29;44.57;94933.66;5008403;28;20026;-89
2021/09/24 08:29:41;;;;;;;5.25;4.85;;;;;;;18.31;45.95;94938.69;4993062;28;20167;-84
2021/09/24 08:32:07;;;;;;;46.17;7.75;;;;;;;17.80;45.54;94936.38;4991494;28;20037;-80
2021/09/24 08:34:32;;;;;;;5.60;4.78;;;;;;;18.73;44.26;94950.13;5025601;28;20876;-84
2021/09/24 08:36:58;;;;;;;5.47;4.97;;;;;;;19.56;43.61;94943.13;4990813;28;20033;-86
2021/09/24 08:39:23;;;;;;;6.45;5.75;;;;;;;18.68;45.01;94950.81;5009493;28;20037;-83
2021/09/24 08:41:49;;;;;;;6.57;5.88;;;;;;;18.74;45.95;94936.00;4991586;28;20541;-82
2021/09/24 08:44:14;;;;;;;7.13;5.82;;;;;;;19.08;43.58;94916.94;4992911;28;20022;-82
2021/09/24 08:46:40;;;;;;;8.75;5.30;;;;;;;18.94;44.39;94960.94;5007601;28;20501;-82
2021/09/24 08:49:06;;;;;;;7.38;5.88;;;;;;;19.64;42.41;94920.97;4991148;28;20029;-83
2021/09/24 08:51:34;;;;;;;6.50;6.00;;;;;;;19.84;42.90;94958.25;5009144;28;20057;-85
2021/09/24 08:54:00;;;;;;;6.35;5.75;;;;;;;19.54;43.91;94950.44;5023077;28;20037;-83
2021/09/24 08:56:26;;;;;;;7.18;5.63;;;;;;;20.31;43.21;94930.94;4992502;28;20025;-86
2021/09/24 08:58:51;;;;;;;5.97;5.25;;;;;;;19.68;43.21;94920.28;4990614;28;20505;-84
2021/09/24 09:01:17;;;;;;;5.80;5.30;;;;;;;20.39;41.37;94891.09;5008245;28;20545;-84
2021/09/24 09:03:43;;;;;;;5.70;5.03;;;;;;;20.66;39.83;94911.63;4990435;28;20038;-81
2021/09/24 09:06:09;;;;;;;132.00;11.00;;;;;;;18.05;43.58;94929.25;5022943;28;20435;-81
2021/09/24 09:08:35;;;;;;;6.18;5.22;;;;;;;19.44;43.17;94932.59;5023410;28;20034;-83
2021/09/24 09:11:06;;;;;;;5.97;5.55;;;;;;;19.40;43.36;94933.28;5022234;28;20025;-82
2021/09/24 09:13:39;;;;;;;54.33;6.63;;;;;;;18.78;44.39;94935.31;4990900;28;20466;-81
2021/09/24 09:16:13;;;;;;;6.55;5.75;;;;;;;19.23;44.00;94921.78;5022332;28;20121;-82
2021/09/24 09:18:39;;;;;;;69.50;7.07;;;;;;;20.71;40.63;94919.66;5023982;28;20029;-81
2021/09/24 09:21:07;;;;;;;5.88;5.40;;;;;;;20.71;41.15;94917.78;5006576;28;20065;-84
2021/09/24 09:23:34;;;;;;;5.28;4.82;;;;;;;20.40;40.34;94912.97;5006764;28;20022;-81
2021/09/24 09:26:02;;;;;;;34.72;5.90;;;;;;;20.02;40.65;94879.25;4989870;28;20503;-86
2021/09/24 09:28:53;;;;;;;13.40;5.43;;;;;;;21.07;40.93;94913.97;5005510;28;20037;-82
2021/09/24 09:31:29;;;;;;;4.82;4.35;;;;;;;21.22;40.70;94895.88;5007221;28;20040;-82
2021/09/24 09:33:56;;;;;;;73.15;7.43;;;;;;;21.42;39.99;94905.91;5022344;28;20026;-86
2021/09/24 09:36:30;;;;;;;5.30;4.80;;;;;;;21.52;40.24;94906.88;5007464;28;20032;-86
2021/09/24 09:38:56;;;;;;;4.93;4.45;;;;;;;21.89;39.89;94904.59;5022604;28;20108;-82
2021/09/24 09:41:22;;;;;;;6.03;3.78;;;;;;;21.61;38.26;94895.97;5006135;28;20030;-83
2021/09/24 09:44:00;;;;;;;5.15;4.07;;;;;;;21.45;39.15;94879.88;4990254;28;20471;-84
2021/09/24 09:46:27;;;;;;;5.53;4.13;;;;;;;22.02;39.88;94885.00;5005908;28;20045;-82
2021/09/24 09:49:10;;;;;;;4.60;3.95;;;;;;;21.88;38.37;94862.59;5022782;28;20521;-82
2021/09/24 09:51:37;;;;;;;6.38;4.93;;;;;;;22.18;38.40;94873.59;5022391;28;20088;-85
2021/09/24 09:54:03;;;;;;;3.92;3.33;;;;;;;22.23;38.81;94888.69;5021551;28;20030;-82
2021/09/24 09:56:40;;;;;;;5.93;3.72;;;;;;;22.47;38.88;94884.78;4990212;28;20438;-89
2021/09/24 09:59:41;;;;;;;5.28;3.83;;;;;;;22.21;37.46;94893.41;5004629;28;20033;-84
2021/09/24 10:02:31;;;;;;;4.88;3.80;;;;;;;21.90;37.51;94892.19;4945911;29;20098;-83
2021/09/24 10:04:58;;;;;;;54.90;5.38;;;;;;;21.82;36.60;94880.19;4995136;28;20479;-89
2021/09/24 10:07:28;;;;;;;45.67;4.85;;;;;;;21.87;37.93;94867.06;4989639;28;20033;-93
2021/09/24 10:10:12;;;;;;;21.77;4.53;;;;;;;22.51;37.57;94881.38;5006322;28;20418;-84
2021/09/24 10:12:38;;;;;;;77.25;5.68;;;;;;;22.04;37.49;94862.59;5022068;28;20104;-86
2021/09/24 10:15:04;;;;;;;4.55;3.90;;;;;;;22.82;35.71;94868.56;5006047;28;20025;-82
2021/09/24 10:17:30;;;;;;;3.67;3.22;;;;;;;22.70;36.25;94860.00;4989443;28;20065;-84
2021/09/24 10:19:55;;;;;;;3.78;3.42;;;;;;;22.88;35.38;94865.72;5005608;28;20061;-81
2021/09/24 10:22:24;;;;;;;3.95;3.58;;;;;;;23.13;35.67;94844.03;4989123;28;20030;-83
2021/09/24 10:24:50;;;;;;;182.95;10.75;;;;;;;22.76;35.93;94864.28;5005220;28;20029;-87
2021/09/24 10:27:22;;;;;;;4.80;3.60;;;;;;;22.22;36.26;94843.03;4989448;28;20029;-89
2021/09/24 10:29:48;;;;;;;168.90;7.90;;;;;;;22.32;36.75;94869.53;4989949;28;20561;-88
2021/09/24 10:32:17;;;;;;;94.20;6.90;;;;;;;22.14;36.91;94861.13;4989259;28;20109;-83
2021/09/24 10:34:55;;;;;;;;;;;;;;;22.11;37.73;94867.69;5006339;28;20029;-86
2021/09/24 10:37:20;;;;;;;6.90;3.60;;;;;;;22.05;36.94;94864.19;5006581;28;19913;-84
2021/09/24 10:39:48;;;;;;;70.35;6.00;;;;;;;22.29;36.20;94874.50;5005879;28;20026;-86
2021/09/24 10:42:17;;;;;;;3.70;3.40;;;;;;;22.55;36.10;94876.41;4988948;28;20061;-83
2021/09/24 10:44:58;;;;;;;;;;;;;;;22.19;36.31;94863.81;5006393;28;20034;-83
2021/09/24 10:47:44;;;;;;;398.50;20.15;;;;;;;22.39;36.05;94862.25;5006472;28;19974;-84
2021/09/24 10:50:36;;;;;;;3.55;3.25;;;;;;;22.38;36.95;94858.00;5005457;28;20034;-83
2021/09/24 10:53:08;;;;;;;70.28;6.05;;;;;;;21.79;37.16;94856.13;5005548;28;20494;-84
2021/09/24 10:55:49;;;;;;;49.45;5.03;;;;;;;21.99;36.27;94838.78;5004414;28;20116;-83
2021/09/24 10:58:27;;;;;;;4.53;3.05;;;;;;;21.77;38.69;94847.69;5021530;28;20030;-84
2021/09/24 11:00:56;;;;;;;205.90;9.67;;;;;;;21.76;36.80;94828.41;5006941;28;20066;-90
2021/09/24 11:03:23;;;;;;;5.20;3.50;;;;;;;21.44;37.26;94817.69;5020804;28;20577;-89
2021/09/24 11:05:52;;;;;;;6.82;3.47;;;;;;;22.00;38.12;94808.72;4989145;28;20033;-84
2021/09/24 11:08:33;;;;;;;6.78;3.17;;;;;;;21.90;38.34;94808.59;5020809;28;20133;-85
2021/09/24 11:11:10;;;;;;;486.92;25.10;;;;;;;21.89;37.67;94806.19;5007327;28;20449;-83
2021/09/24 11:13:39;;;;;;;3.40;3.10;;;;;;;22.35;36.58;94789.84;5010118;28;20026;-84
2021/09/24 11:16:06;;;;;;;329.42;15.48;;;;;;;22.40;36.82;94802.31;5008751;28;20434;-83
2021/09/24 11:18:56;;;;;;;3.58;2.83;;;;;;;22.30;36.16;94795.09;5025199;28;20491;-83
2021/09/24 11:21:30;;;;;;;238.77;12.43;;;;;;;22.41;37.23;94796.78;5009268;28;20053;-84
2021/09/24 11:23:57;;;;;;;100.78;6.50;;;;;;;21.99;36.64;94780.72;5010748;28;20108;-79
2021/09/24 11:26:25;;;;;;;45.83;4.45;;;;;;;22.25;37.90;94784.47;4976128;28;20026;-79
2021/09/24 11:29:10;;;;;;;114.55;8.55;;;;;;;22.32;35.53;94781.63;5025508;28;20124;-82
2021/09/24 11:31:54;;;;;;;7.68;2.78;;;;;;;22.40;36.23;94771.44;5008520;28;20454;-82
2021/09/24 11:34:49;;;;;;;238.00;12.88;;;;;;;22.38;36.46;94767.47;5007833;28;20037;-80
2021/09/24 11:37:27;;;;;;;216.15;9.63;;;;;;;22.05;35.00;94752.59;4996785;28;20034;-80
2021/09/24 11:40:18;;;;;;;125.60;7.10;;;;;;;22.49;35.76;94758.59;5008628;28;20029;-81
2021/09/24 11:42:51;;;;;;;118.97;6.65;;;;;;;22.56;35.81;94746.00;4998332;28;20371;-84
2021/09/24 11:45:19;;;;;;;69.32;4.65;;;;;;;22.57;35.41;94751.00;5024936;28;20054;-84
2021/09/24 11:47:45;;;;;;;121.50;7.35;;;;;;;22.27;34.46;94749.91;5008033;28;20037;-79
2021/09/24 11:50:17;;;;;;;192.18;8.95;;;;;;;22.16;35.43;94745.56;5024867;28;20048;-81
2021/09/24 11:52:52;;;;;;;539.72;26.15;;;;;;;21.72;34.34;94713.91;5007814;28;20025;-83
2021/09/24 11:55:30;;;;;;;22.90;2.95;;;;;;;22.37;32.92;94765.88;5024056;28;20061;-84
2021/09/24 11:58:01;;;;;;;2.17;1.98;;;;;;;22.30;33.80;94767.91;5008138;28;20117;-84
2021/09/24 12:00:38;;;;;;;267.50;14.43;;;;;;;22.11;33.83;94719.13;5008892;28;20034;-83
2021/09/24 12:03:20;;;;;;;529.95;22.95;;;;;;;22.35;34.90;94749.47;5008539;28;20515;-82
2021/09/24 12:05:55;;;;;;;129.43;6.60;;;;;;;22.45;32.80;94752.22;5024096;28;20033;-82
2021/09/24 12:08:29;;;;;;;637.03;26.80;;;;;;;22.23;34.16;94744.34;5008901;28;20561;-87
2021/09/24 12:11:00;;;;;;;93.30;6.50;;;;;;;22.47;34.77;94740.38;5024738;28;20495;-88
2021/09/24 12:13:52;;;;;;;53.80;4.15;;;;;;;22.33;33.51;94744.44;5007828;28;20030;-86
2021/09/24 12:16:30;;;;;;;313.20;15.27;;;;;;;22.21;34.14;94733.25;5008228;28;20108;-82
2021/09/24 12:19:03;;;;;;;263.05;11.32;;;;;;;22.66;34.53;94727.63;5024641;28;20044;-88
2021/09/24 12:21:46;;;;;;;187.80;9.85;;;;;;;22.37;33.63;94708.59;5023739;28;20049;-84
2021/09/24 12:24:20;;;;;;;87.63;6.55;;;;;;;23.02;33.67;94728.72;5008208;28;20556;-83
2021/09/24 12:26:50;;;;;;;435.08;17.77;;;;;;;22.50;33.60;94731.97;4990811;28;20513;-81
2021/09/24 12:29:21;;;;;;;137.77;7.63;;;;;;;22.27;34.27;94729.59;4992084;28;20144;-83
2021/09/24 12:31:54;;;;;;;2.33;2.10;;;;;;;22.55;33.51;94716.16;5007402;28;20030;-83
2021/09/24 12:34:24;;;;;;;233.65;11.50;;;;;;;22.59;34.44;94721.72;5024163;28;20168;-87
2021/09/24 12:36:56;;;;;;;276.90;12.60;;;;;;;22.71;33.63;94711.03;5023385;28;20533;-78
2021/09/24 12:39:22;;;;;;;4.35;3.20;;;;;;;22.71;34.49;94724.22;5023337;28;20038;-79
2021/09/24 12:41:48;;;;;;;366.40;17.00;;;;;;;22.69;34.89;94716.56;5007286;28;20463;-87
2021/09/24 12:44:14;;;;;;;167.82;10.20;;;;;;;22.96;33.65;94705.94;4990740;28;20475;-83
2021/09/24 12:46:43;;;;;;;7.10;3.72;;;;;;;23.01;33.92;94714.72;4991308;28;20034;-85
2021/09/24 12:49:09;;;;;;;119.35;5.93;;;;;;;22.76;33.21;94690.75;5023555;28;20044;-80
2021/09/24 12:51:34;;;;;;;48.60;3.38;;;;;;;23.09;33.29;94713.44;5006584;28;20411;-85
2021/09/24 12:54:00;;;;;;;2.83;1.90;;;;;;;23.16;33.06;94678.84;4991737;28;20410;-84
2021/09/24 12:56:25;;;;;;;28.73;2.95;;;;;;;23.28;32.96;94698.75;4990501;28;20049;-79
2021/09/24 12:58:55;;;;;;;539.08;20.83;;;;;;;22.57;32.58;94690.28;5007014;28;20026;-81
2021/09/24 13:01:21;;;;;;;2.50;2.03;;;;;;;23.24;32.25;94691.59;4990283;28;20120;-81
2021/09/24 13:03:46;;;;;;;208.07;9.32;;;;;;;23.25;33.04;94690.53;5007364;28;20033;-79
2021/09/24 13:06:12;;;;;;;104.95;5.60;;;;;;;22.84;32.29;94682.34;4990503;28;20034;-82
2021/09/24 13:08:38;;;;;;;172.95;8.45;;;;;;;22.43;32.38;94670.63;4990403;28;20054;-80
2021/09/24 13:11:04;;;;;;;160.60;8.63;;;;;;;22.66;32.52;94666.91;4990581;28;20077;-78
2021/09/24 13:13:30;;;;;;;38.50;2.60;;;;;;;22.96;32.73;94685.59;5006417;28;20026;-80
2021/09/24 13:15:56;;;;;;;134.13;8.00;;;;;;;22.71;31.49;94676.69;4990211;28;20630;-81
2021/09/24 13:18:22;;;;;;;470.55;20.40;;;;;;;22.85;31.44;94689.22;4989713;28;20095;-79
2021/09/24 13:20:49;;;;;;;406.80;18.45;;;;;;;22.59;31.70;94682.91;5006875;28;20034;-79
2021/09/24 13:23:14;;;;;;;639.15;25.95;;;;;;;22.27;31.97;94695.31;5006749;28;20403;-82
2021/09/24 13:25:40;;;;;;;18.35;2.30;;;;;;;22.43;32.36;94652.16;4990216;28;20030;-90
2021/09/24 13:28:05;;;;;;;156.00;8.10;;;;;;;22.21;31.85;94685.75;5006537;28;20053;-84
2021/09/24 13:30:31;;;;;;;312.05;15.25;;;;;;;22.45;32.20;94684.38;5022602;28;20088;-85
2021/09/24 13:32:56;;;;;;;338.88;15.10;;;;;;;22.52;31.99;94695.53;5005950;28;20037;-83
2021/09/24 13:35:22;;;;;;;60.45;5.07;;;;;;;22.73;32.20;94693.09;4989917;28;20081;-85
2021/09/24 13:37:47;;;;;;;113.95;7.32;;;;;;;22.50;32.32;94692.34;5006134;28;20426;-87
2021/09/24 13:40:13;;;;;;;2.20;2.00;;;;;;;22.45;32.92;94700.22;4989238;28;20033;-87
2021/09/24 13:42:38;;;;;;;357.70;16.70;;;;;;;22.06;33.07;94683.72;5022887;28;20026;-84
2021/09/24 13:45:07;;;;;;;36.35;3.03;;;;;;;22.13;34.39;94694.09;5022887;28;20025;-82
2021/09/24 13:47:33;;;;;;;146.02;8.27;;;;;;;22.15;33.82;94664.84;4989443;28;20025;-81
2021/09/24 13:49:59;;;;;;;318.42;13.60;;;;;;;22.47;33.65;94684.13;5005707;28;20133;-83
2021/09/24 13:52:24;;;;;;;213.65;11.23;;;;;;;22.35;33.78;94686.13;5005316;28;20117;-82
2021/09/24 13:54:50;;;;;;;49.67;3.97;;;;;;;22.44;33.30;94679.34;5006073;28;20049;-84
2021/09/24 13:57:16;;;;;;;809.85;34.38;;;;;;;21.63;33.28;94643.41;4988863;28;20034;-83
2021/09/24 13:59:41;;;;;;;62.25;4.85;;;;;;;21.77;33.74;94665.72;4990047;28;20025;-82
2021/09/24 14:02:07;;;;;;;497.27;22.05;;;;;;;21.50;33.57;94645.38;5005108;28;20054;-79
2021/09/24 14:04:32;;;;;;;125.30;6.65;;;;;;;21.51;34.79;94646.94;5022200;28;20038;-81
2021/09/24 14:06:58;;;;;;;242.48;10.85;;;;;;;21.66;33.89;94667.44;5006020;28;20080;-83
2021/09/24 14:09:23;;;;;;;157.85;7.70;;;;;;;21.47;34.69;94672.22;5021497;28;20037;-86
2021/09/24 14:11:49;;;;;;;373.85;18.60;;;;;;;21.03;33.90;94625.75;5007258;28;20030;-83
2021/09/24 14:14:15;;;;;;;3.13;2.22;;;;;;;21.20;34.56;94650.25;4988812;28;20499;-81
2021/09/24 14:16:40;;;;;;;44.58;5.20;;;;;;;21.36;34.74;94672.31;5006928;28;20484;-82
2021/09/24 14:19:06;;;;;;;130.30;7.00;;;;;;;21.15;34.59;94634.38;4988455;28;20030;-82
2021/09/24 14:21:31;;;;;;;730.72;36.72;;;;;;;21.49;34.34;94637.69;4989375;28;20038;-86
2021/09/24 14:23:57;;;;;;;18.27;3.88;;;;;;;21.92;34.06;94677.25;4989178;28;20411;-88
2021/09/24 14:26:22;;;;;;;118.78;6.35;;;;;;;21.57;33.97;94652.31;4989312;28;20069;-91
2021/09/24 14:28:48;;;;;;;14.18;2.90;;;;;;;21.81;34.01;94677.34;4989625;28;20030;-86
2021/09/24 14:31:14;;;;;;;353.42;16.27;;;;;;;21.98;34.00;94680.75;5005166;28;20037;-88
2021/09/24 14:33:40;;;;;;;449.25;24.08;;;;;;;21.91;34.44;94670.38;5005598;28;20060;-83
2021/09/24 14:36:05;;;;;;;39.25;4.38;;;;;;;21.94;34.51;94661.19;4988525;28;20054;-81
2021/09/24 14:38:31;;;;;;;83.43;6.47;;;;;;;21.51;34.75;94612.69;4989521;28;20034;-82
2021/09/24 14:40:56;;;;;;;554.65;25.98;;;;;;;22.02;34.95;94684.50;4989359;28;20486;-80
2021/09/24 14:43:22;;;;;;;231.25;12.55;;;;;;;21.79;34.66;94680.25;5005536;28;20041;-83
2021/09/24 14:45:47;;;;;;;4.88;2.80;;;;;;;21.61;34.85;94685.03;4992511;28;20057;-87
2021/09/24 14:48:13;;;;;;;466.65;19.85;;;;;;;21.19;34.81;94687.41;4993243;28;20034;-87
2021/09/24 14:50:38;;;;;;;3.72;2.03;;;;;;;21.13;35.34;94688.38;4993069;28;20030;-88
2021/09/24 14:53:04;;;;;;;97.28;7.20;;;;;;;20.88;35.38;94654.50;4992316;28;20061;-83
2021/09/24 14:55:30;;;;;;;156.25;8.52;;;;;;;20.97;35.61;94671.50;5010710;28;20438;-82
2021/09/24 14:57:56;;;;;;;481.50;24.08;;;;;;;21.15;34.29;94691.53;4992739;28;20022;-88
2021/09/24 15:00:21;;;;;;;118.38;7.43;;;;;;;21.19;34.15;94680.25;5008965;28;20080;-89
2021/09/24 15:02:47;;;;;;;100.18;7.80;;;;;;;21.09;34.63;94664.34;5009683;28;20042;-83
2021/09/24 15:05:12;;;;;;;4.18;3.53;;;;;;;21.13;34.47;94688.38;5025227;28;20116;-83
2021/09/24 15:07:38;;;;;;;144.70;9.85;;;;;;;21.07;34.95;94687.44;5010640;28;20430;-85
2021/09/24 15:10:05;;;;;;;226.43;12.00;;;;;;;21.06;34.45;94696.41;5009680;28;20026;-83
2021/09/24 15:12:31;;;;;;;44.85;4.78;;;;;;;20.83;34.98;94659.72;5009321;28;20101;-85
2021/09/24 15:14:56;;;;;;;33.92;7.47;;;;;;;20.96;34.98;94683.09;5009801;28;20057;-88
2021/09/24 15:17:22;;;;;;;234.75;13.82;;;;;;;21.05;34.97;94692.16;5008983;28;20411;-83
2021/09/24 15:19:47;;;;;;;6.18;5.43;;;;;;;20.77;35.24;94631.72;5008766;28;20120;-83
2021/09/24 15:22:13;;;;;;;6.88;4.00;;;;;;;20.87;36.21;94676.63;5008949;28;20540;-82
2021/09/24 15:24:39;;;;;;;3.08;2.78;;;;;;;20.82;36.04;94674.72;4991810;28;20030;-88
2021/09/24 15:27:05;;;;;;;6.55;3.47;;;;;;;20.92;36.32;94681.97;4992096;28;20121;-82
2021/09/24 15:29:30;;;;;;;2.88;2.67;;;;;;;20.44;36.43;94638.59;5008530;28;20030;-86
2021/09/24 15:31:56;;;;;;;3.10;2.80;;;;;;;20.66;36.72;94675.53;5007849;28;20033;-84
2021/09/24 15:34:22;;;;;;;3.78;2.60;;;;;;;20.70;37.47;94686.38;4992249;28;20029;-87
2021/09/24 15:36:48;;;;;;;2.80;2.60;;;;;;;20.17;37.42;94618.38;5009085;28;20026;-83
2021/09/24 15:39:14;;;;;;;4.95;2.22;;;;;;;20.62;37.29;94700.72;5009948;28;20029;-82
2021/09/24 15:41:40;;;;;;;88.70;5.35;;;;;;;20.47;37.46;94690.75;4991230;28;20406;-85
2021/09/24 15:44:05;;;;;;;3.75;2.08;;;;;;;20.38;37.90;94702.72;4991962;28;20030;-82
2021/09/24 15:46:31;;;;;;;2.80;2.60;;;;;;;20.11;38.66;94677.97;5008149;28;20479;-88
2021/09/24 15:48:57;;;;;;;5.03;1.95;;;;;;;20.03;38.94;94675.75;5009022;28;20062;-83
2021/09/24 15:51:22;;;;;;;6.05;2.58;;;;;;;20.03;39.59;94714.38;4991402;28;20033;-85
2021/09/24 15:53:49;;;;;;;3.13;2.80;;;;;;;19.88;39.35;94697.28;4991137;28;20539;-84
2021/09/24 15:56:15;;;;;;;3.42;2.85;;;;;;;19.69;39.84;94706.38;5008913;28;20030;-87
2021/09/24 15:58:40;;;;;;;2.85;2.50;;;;;;;19.72;39.94;94716.41;4991383;28;20131;-84
2021/09/24 16:01:06;;;;;;;5.22;2.80;;;;;;;19.59;40.54;94702.72;4991886;28;20477;-83
2021/09/24 16:03:32;;;;;;;2.95;2.50;;;;;;;19.21;41.12;94688.28;5008531;28;20116;-85
2021/09/24 16:05:58;;;;;;;4.68;2.85;;;;;;;19.02;41.91;94702.56;5007401;28;20525;-86
2021/09/24 16:08:24;;;;;;;53.42;4.47;;;;;;;18.95;42.20;94696.63;5007976;28;20025;-85
2021/09/24 16:10:50;;;;;;;5.68;3.00;;;;;;;18.89;42.65;94711.44;5007263;28;20033;-91
2021/09/24 16:13:17;;;;;;;2.42;2.22;;;;;;;18.74;42.93;94718.19;5009195;28;20030;-89
2021/09/24 16:15:43;;;;;;;4.22;2.85;;;;;;;18.54;43.54;94717.69;5007406;28;20026;-87
2021/09/24 16:18:08;;;;;;;3.22;2.90;;;;;;;18.23;43.65;94677.56;5024134;28;20022;-82
2021/09/24 16:20:35;;;;;;;2.92;2.70;;;;;;;18.08;44.49;94677.16;5007264;28;20029;-84
2021/09/24 16:23:03;;;;;;;4.88;2.88;;;;;;;18.23;44.94;94719.53;4991632;28;20582;-83
2021/09/24 16:25:28;;;;;;;3.15;2.72;;;;;;;17.96;45.07;94699.13;5007197;28;20026;-83
2021/09/24 16:27:55;;;;;;;4.30;2.72;;;;;;;17.92;45.36;94699.56;5006879;28;20548;-84
2021/09/24 16:30:20;;;;;;;2.97;2.50;;;;;;;17.76;45.88;94687.09;5023917;28;20033;-86